sensor_id;sensor_type;location;lat;lon;timestamp;pressure;altitude;pressure_sealevel;temperature;humidity
27294;BME280;14785;52.556;13.430;2023-03-25T00:01:20;99477.59;;;12.90;100.00
27294;BME280;14785;52.556;13.430;2023-03-25T00:03:50;99474.72;;;12.85;100.00
27294;BME280;14785;52.556;13.430;2023-03-25T00:06:18;99477.75;;;12.76;100.00
27294;BME280;14785;52.556;13.430;2023-03-25T00:08:47;99476.31;;;12.80;100.00
27294;BME280;14785;52.556;13.430;2023-03-25T00:11:12;99475.53;;;12.86;100.00
27294;BME280;14785;52.556;13.430;2023-03-25T00:13:38;99468.13;;;12.81;100.00
27294;BME280;14785;52.556;13.430;2023-03-25T00:16:04;99473.06;;;12.78;100.00
27294;BME280;14785;52.556;13.430;2023-03-25T00:18:31;99471.78;;;12.74;100.00
27294;BME280;14785;52.556;13.430;2023-03-25T00:21:04;99469.63;;;12.50;100.00
27294;BME280;14785;52.556;13.430;2023-03-25T00:23:35;99462.31;;;12.65;100.00
27294;BME280;14785;52.556;13.430;2023-03-25T00:26:01;99462.16;;;12.73;100.00
27294;BME280;14785;52.556;13.430;2023-03-25T00:28:29;99457.81;;;12.65;100.00
27294;BME280;14785;52.556;13.430;2023-03-25T00:30:58;99466.16;;;12.56;100.00
27294;BME280;14785;52.556;13.430;2023-03-25T00:33:25;99462.53;;;12.70;100.00
27294;BME280;14785;52.556;13.430;2023-03-25T00:35:51;99459.25;;;12.68;100.00
27294;BME280;14785;52.556;13.430;2023-03-25T00:38:19;99466.78;;;12.58;100.00
27294;BME280;14785;52.556;13.430;2023-03-25T00:40:45;99472.84;;;12.39;100.00
27294;BME280;14785;52.556;13.430;2023-03-25T00:43:13;99476.41;;;12.52;100.00
27294;BME280;14785;52.556;13.430;2023-03-25T00:45:38;99467.19;;;12.55;100.00
27294;BME280;14785;52.556;13.430;2023-03-25T00:48:04;99472.47;;;12.42;100.00
27294;BME280;14785;52.556;13.430;2023-03-25T00:50:30;99475.66;;;12.31;100.00
27294;BME280;14785;52.556;13.430;2023-03-25T00:52:55;99481.47;;;12.41;100.00
27294;BME280;14785;52.556;13.430;2023-03-25T00:55:20;99472.47;;;12.42;100.00
27294;BME280;14785;52.556;13.430;2023-03-25T00:57:46;99472.34;;;12.22;100.00
27294;BME280;14785;52.556;13.430;2023-03-25T01:00:14;99471.03;;;12.46;100.00
27294;BME280;14785;52.556;13.430;2023-03-25T01:02:40;99476.63;;;12.51;100.00
27294;BME280;14785;52.556;13.430;2023-03-25T01:05:07;99479.31;;;12.23;100.00
27294;BME280;14785;52.556;13.430;2023-03-25T01:07:38;99471.19;;;12.38;100.00
27294;BME280;14785;52.556;13.430;2023-03-25T01:10:04;99477.63;;;12.16;100.00
27294;BME280;14785;52.556;13.430;2023-03-25T01:12:30;99476.81;;;12.15;100.00
27294;BME280;14785;52.556;13.430;2023-03-25T01:14:56;99473.00;;;12.31;100.00
27294;BME280;14785;52.556;13.430;2023-03-25T01:17:21;99472.06;;;12.11;100.00
27294;BME280;14785;52.556;13.430;2023-03-25T01:19:47;99484.63;;;12.17;100.00
27294;BME280;14785;52.556;13.430;2023-03-25T01:22:12;99476.47;;;12.25;100.00
27294;BME280;14785;52.556;13.430;2023-03-25T01:24:38;99467.06;;;12.29;100.00
27294;BME280;14785;52.556;13.430;2023-03-25T01:27:03;99465.31;;;12.15;100.00
27294;BME280;14785;52.556;13.430;2023-03-25T01:29:29;99469.81;;;12.14;100.00
27294;BME280;14785;52.556;13.430;2023-03-25T01:31:55;99463.19;;;12.38;100.00
27294;BME280;14785;52.556;13.430;2023-03-25T01:34:21;99466.50;;;12.06;100.00
27294;BME280;14785;52.556;13.430;2023-03-25T01:36:47;99456.75;;;12.19;100.00
27294;BME280;14785;52.556;13.430;2023-03-25T01:39:14;99460.63;;;12.17;100.00
27294;BME280;14785;52.556;13.430;2023-03-25T01:41:44;99445.34;;;12.32;100.00
27294;BME280;14785;52.556;13.430;2023-03-25T01:46:39;99442.69;;;12.38;100.00
27294;BME280;14785;52.556;13.430;2023-03-25T01:49:13;99439.59;;;12.35;100.00
27294;BME280;14785;52.556;13.430;2023-03-25T01:51:43;99449.00;;;12.31;100.00
27294;BME280;14785;52.556;13.430;2023-03-25T01:54:13;99439.41;;;12.02;100.00
27294;BME280;14785;52.556;13.430;2023-03-25T01:56:43;99436.19;;;12.13;100.00
27294;BME280;14785;52.556;13.430;2023-03-25T01:59:12;99438.75;;;12.28;100.00
27294;BME280;14785;52.556;13.430;2023-03-25T02:01:38;99436.72;;;12.30;100.00
27294;BME280;14785;52.556;13.430;2023-03-25T02:04:04;99434.19;;;12.15;100.00
27294;BME280;14785;52.556;13.430;2023-03-25T02:06:43;99430.34;;;12.31;100.00
27294;BME280;14785;52.556;13.430;2023-03-25T02:09:11;99433.06;;;12.44;100.00
27294;BME280;14785;52.556;13.430;2023-03-25T02:11:38;99427.09;;;12.35;100.00
27294;BME280;14785;52.556;13.430;2023-03-25T02:14:07;99420.03;;;12.55;100.00
27294;BME280;14785;52.556;13.430;2023-03-25T02:22:07;99408.47;;;12.42;100.00
27294;BME280;14785;52.556;13.430;2023-03-25T02:30:03;99410.50;;;12.40;100.00
27294;BME280;14785;52.556;13.430;2023-03-25T02:40:39;99391.16;;;12.25;100.00
27294;BME280;14785;52.556;13.430;2023-03-25T02:43:10;99388.91;;;12.28;100.00
27294;BME280;14785;52.556;13.430;2023-03-25T02:45:43;99387.53;;;12.39;100.00
27294;BME280;14785;52.556;13.430;2023-03-25T02:48:15;99380.53;;;12.38;100.00
27294;BME280;14785;52.556;13.430;2023-03-25T02:50:50;99378.53;;;12.53;100.00
27294;BME280;14785;52.556;13.430;2023-03-25T02:53:43;99370.69;;;12.32;100.00
27294;BME280;14785;52.556;13.430;2023-03-25T02:56:13;99370.91;;;12.37;100.00
27294;BME280;14785;52.556;13.430;2023-03-25T02:58:43;99374.59;;;12.36;100.00
27294;BME280;14785;52.556;13.430;2023-03-25T03:01:10;99376.81;;;12.26;100.00
27294;BME280;14785;52.556;13.430;2023-03-25T03:03:38;99369.81;;;12.25;100.00
27294;BME280;14785;52.556;13.430;2023-03-25T03:06:05;99369.47;;;12.41;100.00
27294;BME280;14785;52.556;13.430;2023-03-25T03:08:43;99372.81;;;12.49;100.00
27294;BME280;14785;52.556;13.430;2023-03-25T03:17:18;99366.22;;;12.45;100.00
27294;BME280;14785;52.556;13.430;2023-03-25T03:20:24;99370.34;;;12.48;100.00
27294;BME280;14785;52.556;13.430;2023-03-25T03:27:50;99388.81;;;12.09;100.00
27294;BME280;14785;52.556;13.430;2023-03-25T03:30:36;99389.50;;;12.24;100.00
27294;BME280;14785;52.556;13.430;2023-03-25T03:33:08;99398.00;;;12.00;100.00
27294;BME280;14785;52.556;13.430;2023-03-25T03:35:46;99400.75;;;11.36;100.00
27294;BME280;14785;52.556;13.430;2023-03-25T03:38:18;99403.91;;;11.68;100.00
27294;BME280;14785;52.556;13.430;2023-03-25T03:40:50;99392.97;;;11.84;100.00
27294;BME280;14785;52.556;13.430;2023-03-25T03:43:41;99393.25;;;11.68;100.00
27294;BME280;14785;52.556;13.430;2023-03-25T03:46:19;99399.22;;;11.48;100.00
27294;BME280;14785;52.556;13.430;2023-03-25T03:48:51;99395.44;;;11.36;100.00
27294;BME280;14785;52.556;13.430;2023-03-25T03:51:24;99406.56;;;11.46;100.00
27294;BME280;14785;52.556;13.430;2023-03-25T03:54:04;99408.00;;;11.00;100.00
27294;BME280;14785;52.556;13.430;2023-03-25T03:56:39;99407.28;;;11.76;100.00
27294;BME280;14785;52.556;13.430;2023-03-25T03:59:16;99404.66;;;11.61;100.00
27294;BME280;14785;52.556;13.430;2023-03-25T04:01:49;99398.03;;;11.30;100.00
27294;BME280;14785;52.556;13.430;2023-03-25T04:04:21;99392.09;;;11.28;100.00
27294;BME280;14785;52.556;13.430;2023-03-25T04:07:17;99398.63;;;11.74;100.00
27294;BME280;14785;52.556;13.430;2023-03-25T04:12:30;99389.59;;;12.03;100.00
27294;BME280;14785;52.556;13.430;2023-03-25T04:14:59;99379.97;;;12.02;100.00
27294;BME280;14785;52.556;13.430;2023-03-25T04:17:25;99378.47;;;12.33;100.00
27294;BME280;14785;52.556;13.430;2023-03-25T04:19:54;99391.88;;;12.06;100.00
27294;BME280;14785;52.556;13.430;2023-03-25T04:22:20;99384.94;;;12.11;100.00
27294;BME280;14785;52.556;13.430;2023-03-25T04:24:46;99395.34;;;11.72;100.00
27294;BME280;14785;52.556;13.430;2023-03-25T04:27:15;99393.13;;;12.10;100.00
27294;BME280;14785;52.556;13.430;2023-03-25T04:29:41;99384.78;;;12.19;100.00
27294;BME280;14785;52.556;13.430;2023-03-25T04:32:10;99389.13;;;12.33;100.00
27294;BME280;14785;52.556;13.430;2023-03-25T04:34:36;99395.25;;;11.87;100.00
27294;BME280;14785;52.556;13.430;2023-03-25T04:37:01;99389.59;;;11.69;100.00
27294;BME280;14785;52.556;13.430;2023-03-25T04:39:27;99393.44;;;11.94;100.00
27294;BME280;14785;52.556;13.430;2023-03-25T04:41:54;99394.00;;;11.61;100.00
27294;BME280;14785;52.556;13.430;2023-03-25T04:44:21;99388.66;;;11.61;100.00
27294;BME280;14785;52.556;13.430;2023-03-25T04:46:51;99383.72;;;12.14;100.00
27294;BME280;14785;52.556;13.430;2023-03-25T04:49:20;99395.97;;;11.74;100.00
27294;BME280;14785;52.556;13.430;2023-03-25T04:51:50;99388.75;;;11.47;100.00
27294;BME280;14785;52.556;13.430;2023-03-25T04:54:19;99385.78;;;11.56;100.00
27294;BME280;14785;52.556;13.430;2023-03-25T04:56:49;99388.56;;;11.70;100.00
27294;BME280;14785;52.556;13.430;2023-03-25T04:59:16;99384.88;;;11.49;100.00
27294;BME280;14785;52.556;13.430;2023-03-25T05:01:43;99385.66;;;11.16;100.00
27294;BME280;14785;52.556;13.430;2023-03-25T05:04:11;99378.97;;;11.75;100.00
27294;BME280;14785;52.556;13.430;2023-03-25T05:06:43;99384.97;;;11.35;100.00
27294;BME280;14785;52.556;13.430;2023-03-25T05:09:12;99380.00;;;11.74;100.00
27294;BME280;14785;52.556;13.430;2023-03-25T05:11:40;99380.34;;;11.43;100.00
27294;BME280;14785;52.556;13.430;2023-03-25T05:14:07;99385.50;;;11.73;100.00
27294;BME280;14785;52.556;13.430;2023-03-25T05:16:33;99375.25;;;11.70;100.00
27294;BME280;14785;52.556;13.430;2023-03-25T05:18:58;99381.53;;;11.90;100.00
27294;BME280;14785;52.556;13.430;2023-03-25T05:21:24;99400.47;;;11.52;100.00
27294;BME280;14785;52.556;13.430;2023-03-25T05:23:50;99382.78;;;11.38;100.00
27294;BME280;14785;52.556;13.430;2023-03-25T05:26:17;99380.00;;;11.53;100.00
27294;BME280;14785;52.556;13.430;2023-03-25T05:28:43;99379.72;;;11.63;100.00
27294;BME280;14785;52.556;13.430;2023-03-25T05:31:09;99372.84;;;11.81;100.00
27294;BME280;14785;52.556;13.430;2023-03-25T05:33:36;99376.53;;;11.80;100.00
27294;BME280;14785;52.556;13.430;2023-03-25T05:36:09;99372.13;;;11.94;100.00
27294;BME280;14785;52.556;13.430;2023-03-25T05:38:35;99374.22;;;11.71;100.00
27294;BME280;14785;52.556;13.430;2023-03-25T05:41:01;99376.03;;;11.64;100.00
27294;BME280;14785;52.556;13.430;2023-03-25T05:43:26;99379.88;;;11.89;100.00
27294;BME280;14785;52.556;13.430;2023-03-25T05:45:52;99382.31;;;11.84;100.00
27294;BME280;14785;52.556;13.430;2023-03-25T05:48:17;99388.66;;;11.61;100.00
27294;BME280;14785;52.556;13.430;2023-03-25T05:50:43;99394.53;;;11.72;100.00
27294;BME280;14785;52.556;13.430;2023-03-25T05:53:11;99390.50;;;11.82;100.00
27294;BME280;14785;52.556;13.430;2023-03-25T05:55:37;99397.09;;;11.86;100.00
27294;BME280;14785;52.556;13.430;2023-03-25T05:58:02;99407.72;;;12.14;100.00
27294;BME280;14785;52.556;13.430;2023-03-25T06:00:28;99406.09;;;11.15;100.00
27294;BME280;14785;52.556;13.430;2023-03-25T06:02:54;99401.63;;;11.43;100.00
27294;BME280;14785;52.556;13.430;2023-03-25T06:05:20;99401.88;;;11.70;100.00
27294;BME280;14785;52.556;13.430;2023-03-25T06:07:48;99404.66;;;11.61;100.00
27294;BME280;14785;52.556;13.430;2023-03-25T06:10:14;99408.63;;;11.44;100.00
27294;BME280;14785;52.556;13.430;2023-03-25T06:12:43;99411.41;;;11.36;100.00
27294;BME280;14785;52.556;13.430;2023-03-25T06:15:11;99409.97;;;11.61;100.00
27294;BME280;14785;52.556;13.430;2023-03-25T06:17:38;99415.78;;;12.27;100.00
27294;BME280;14785;52.556;13.430;2023-03-25T06:20:08;99419.25;;;11.93;100.00
27294;BME280;14785;52.556;13.430;2023-03-25T06:22:44;99418.75;;;11.34;100.00
27294;BME280;14785;52.556;13.430;2023-03-25T06:25:15;99411.28;;;11.66;100.00
27294;BME280;14785;52.556;13.430;2023-03-25T06:27:46;99421.22;;;11.36;100.00
27294;BME280;14785;52.556;13.430;2023-03-25T06:30:20;99414.94;;;11.65;100.00
27294;BME280;14785;52.556;13.430;2023-03-25T06:32:45;99428.31;;;11.50;100.00
27294;BME280;14785;52.556;13.430;2023-03-25T06:35:15;99422.16;;;11.49;100.00
27294;BME280;14785;52.556;13.430;2023-03-25T06:37:48;99418.06;;;11.47;100.00
27294;BME280;14785;52.556;13.430;2023-03-25T06:40:14;99440.03;;;11.77;100.00
27294;BME280;14785;52.556;13.430;2023-03-25T06:42:40;99426.97;;;11.82;100.00
27294;BME280;14785;52.556;13.430;2023-03-25T06:45:09;99427.09;;;11.52;100.00
27294;BME280;14785;52.556;13.430;2023-03-25T06:47:34;99425.66;;;11.71;100.00
27294;BME280;14785;52.556;13.430;2023-03-25T06:50:00;99423.59;;;11.94;100.00
27294;BME280;14785;52.556;13.430;2023-03-25T06:52:25;99414.22;;;11.77;100.00
27294;BME280;14785;52.556;13.430;2023-03-25T06:54:51;99422.94;;;12.26;100.00
27294;BME280;14785;52.556;13.430;2023-03-25T06:57:16;99432.81;;;11.71;100.00
27294;BME280;14785;52.556;13.430;2023-03-25T06:59:42;99414.22;;;12.05;100.00
27294;BME280;14785;52.556;13.430;2023-03-25T07:02:11;99418.84;;;11.90;100.00
27294;BME280;14785;52.556;13.430;2023-03-25T07:04:37;99417.28;;;12.02;100.00
27294;BME280;14785;52.556;13.430;2023-03-25T07:07:02;99407.44;;;12.43;100.00
27294;BME280;14785;52.556;13.430;2023-03-25T07:09:28;99422.13;;;11.92;100.00
27294;BME280;14785;52.556;13.430;2023-03-25T07:11:53;99416.44;;;12.01;100.00
27294;BME280;14785;52.556;13.430;2023-03-25T07:14:19;99430.03;;;12.13;100.00
27294;BME280;14785;52.556;13.430;2023-03-25T07:16:44;99429.78;;;12.01;100.00
27294;BME280;14785;52.556;13.430;2023-03-25T07:19:10;99427.28;;;12.34;100.00
27294;BME280;14785;52.556;13.430;2023-03-25T07:21:36;99439.97;;;12.25;100.00
27294;BME280;14785;52.556;13.430;2023-03-25T07:24:01;99429.44;;;12.11;100.00
27294;BME280;14785;52.556;13.430;2023-03-25T07:26:27;99443.03;;;11.95;100.00
27294;BME280;14785;52.556;13.430;2023-03-25T07:28:53;99432.59;;;12.27;100.00
27294;BME280;14785;52.556;13.430;2023-03-25T07:31:18;99428.19;;;12.47;100.00
27294;BME280;14785;52.556;13.430;2023-03-25T07:33:44;99416.81;;;12.86;100.00
27294;BME280;14785;52.556;13.430;2023-03-25T07:36:11;99444.19;;;12.13;100.00
27294;BME280;14785;52.556;13.430;2023-03-25T07:38:37;99440.47;;;12.42;100.00
27294;BME280;14785;52.556;13.430;2023-03-25T07:41:08;99441.22;;;12.29;100.00
27294;BME280;14785;52.556;13.430;2023-03-25T07:43:34;99442.09;;;12.43;100.00
27294;BME280;14785;52.556;13.430;2023-03-25T07:46:00;99431.97;;;12.66;100.00
27294;BME280;14785;52.556;13.430;2023-03-25T07:48:25;99429.53;;;12.77;100.00
27294;BME280;14785;52.556;13.430;2023-03-25T07:50:55;99438.63;;;12.96;100.00
27294;BME280;14785;52.556;13.430;2023-03-25T07:53:20;99469.13;;;12.33;100.00
27294;BME280;14785;52.556;13.430;2023-03-25T07:55:47;99426.94;;;12.50;100.00
27294;BME280;14785;52.556;13.430;2023-03-25T07:58:17;99458.94;;;12.43;100.00
27294;BME280;14785;52.556;13.430;2023-03-25T08:00:43;99446.59;;;12.36;100.00
27294;BME280;14785;52.556;13.430;2023-03-25T08:03:10;99417.66;;;12.86;100.00
27294;BME280;14785;52.556;13.430;2023-03-25T08:05:48;99450.19;;;13.03;100.00
27294;BME280;14785;52.556;13.430;2023-03-25T08:08:14;99434.59;;;13.06;100.00
27294;BME280;14785;52.556;13.430;2023-03-25T08:10:41;99432.91;;;12.99;100.00
27294;BME280;14785;52.556;13.430;2023-03-25T08:13:07;99434.56;;;13.00;100.00
27294;BME280;14785;52.556;13.430;2023-03-25T08:15:34;99429.59;;;12.97;100.00
27294;BME280;14785;52.556;13.430;2023-03-25T08:17:59;99437.47;;;13.05;100.00
27294;BME280;14785;52.556;13.430;2023-03-25T08:20:26;99446.06;;;13.07;100.00
27294;BME280;14785;52.556;13.430;2023-03-25T08:22:55;99427.44;;;13.20;100.00
27294;BME280;14785;52.556;13.430;2023-03-25T08:25:22;99437.28;;;12.66;100.00
27294;BME280;14785;52.556;13.430;2023-03-25T08:27:48;99433.38;;;13.22;100.00
27294;BME280;14785;52.556;13.430;2023-03-25T08:30:14;99444.47;;;13.12;100.00
27294;BME280;14785;52.556;13.430;2023-03-25T08:32:40;99430.53;;;13.30;100.00
27294;BME280;14785;52.556;13.430;2023-03-25T08:35:06;99458.75;;;12.98;100.00
27294;BME280;14785;52.556;13.430;2023-03-25T08:37:32;99431.56;;;13.42;100.00
27294;BME280;14785;52.556;13.430;2023-03-25T08:40:00;99435.84;;;13.36;100.00
27294;BME280;14785;52.556;13.430;2023-03-25T08:42:26;99435.63;;;13.25;100.00
27294;BME280;14785;52.556;13.430;2023-03-25T08:44:51;99423.72;;;13.08;100.00
27294;BME280;14785;52.556;13.430;2023-03-25T08:47:17;99429.69;;;13.88;100.00
27294;BME280;14785;52.556;13.430;2023-03-25T08:49:46;99433.38;;;13.28;100.00
27294;BME280;14785;52.556;13.430;2023-03-25T08:52:11;99426.41;;;13.47;100.00
27294;BME280;14785;52.556;13.430;2023-03-25T08:54:39;99442.84;;;13.51;100.00
27294;BME280;14785;52.556;13.430;2023-03-25T08:57:05;99414.88;;;14.25;100.00
27294;BME280;14785;52.556;13.430;2023-03-25T08:59:30;99422.72;;;13.74;100.00
27294;BME280;14785;52.556;13.430;2023-03-25T09:01:55;99428.88;;;13.88;100.00
27294;BME280;14785;52.556;13.430;2023-03-25T09:04:21;99422.31;;;13.77;100.00
27294;BME280;14785;52.556;13.430;2023-03-25T09:06:46;99415.53;;;13.42;100.00
27294;BME280;14785;52.556;13.430;2023-03-25T09:09:14;99420.66;;;13.24;100.00
27294;BME280;14785;52.556;13.430;2023-03-25T09:11:39;99426.81;;;13.44;100.00
27294;BME280;14785;52.556;13.430;2023-03-25T09:14:05;99450.03;;;13.24;100.00
27294;BME280;14785;52.556;13.430;2023-03-25T09:16:33;99417.59;;;13.79;100.00
27294;BME280;14785;52.556;13.430;2023-03-25T09:19:00;99420.19;;;14.31;100.00
27294;BME280;14785;52.556;13.430;2023-03-25T09:21:25;99423.13;;;13.71;100.00
27294;BME280;14785;52.556;13.430;2023-03-25T09:23:51;99435.47;;;13.59;100.00
27294;BME280;14785;52.556;13.430;2023-03-25T09:26:19;99427.66;;;13.77;100.00
27294;BME280;14785;52.556;13.430;2023-03-25T09:28:45;99471.34;;;13.11;100.00
27294;BME280;14785;52.556;13.430;2023-03-25T09:31:12;99450.25;;;13.29;100.00
27294;BME280;14785;52.556;13.430;2023-03-25T09:33:39;99474.25;;;12.75;100.00
27294;BME280;14785;52.556;13.430;2023-03-25T09:36:04;99465.41;;;12.28;100.00
27294;BME280;14785;52.556;13.430;2023-03-25T09:38:31;99452.53;;;12.04;100.00
27294;BME280;14785;52.556;13.430;2023-03-25T09:41:11;99459.72;;;11.33;100.00
27294;BME280;14785;52.556;13.430;2023-03-25T09:44:03;99480.13;;;11.26;100.00
27294;BME280;14785;52.556;13.430;2023-03-25T09:46:30;99459.78;;;11.40;100.00
27294;BME280;14785;52.556;13.430;2023-03-25T09:48:59;99462.06;;;11.64;100.00
27294;BME280;14785;52.556;13.430;2023-03-25T09:51:30;99457.53;;;11.86;100.00
27294;BME280;14785;52.556;13.430;2023-03-25T09:56:47;99445.84;;;12.55;100.00
27294;BME280;14785;52.556;13.430;2023-03-25T09:59:29;99444.44;;;13.06;100.00
27294;BME280;14785;52.556;13.430;2023-03-25T10:13:11;99436.09;;;12.75;100.00
27294;BME280;14785;52.556;13.430;2023-03-25T10:18:44;99447.25;;;12.98;100.00
27294;BME280;14785;52.556;13.430;2023-03-25T10:29:20;99443.69;;;13.51;100.00
27294;BME280;14785;52.556;13.430;2023-03-25T10:31:53;99432.19;;;13.70;100.00
27294;BME280;14785;52.556;13.430;2023-03-25T10:34:25;99425.53;;;14.18;100.00
27294;BME280;14785;52.556;13.430;2023-03-25T10:36:57;99413.41;;;14.35;100.00
27294;BME280;14785;52.556;13.430;2023-03-25T10:39:28;99413.59;;;14.84;100.00
27294;BME280;14785;52.556;13.430;2023-03-25T10:42:38;99427.53;;;15.37;100.00
27294;BME280;14785;52.556;13.430;2023-03-25T10:45:13;99411.69;;;14.98;100.00
27294;BME280;14785;52.556;13.430;2023-03-25T10:47:39;99425.47;;;14.57;100.00
27294;BME280;14785;52.556;13.430;2023-03-25T10:50:05;99429.25;;;14.17;100.00
27294;BME280;14785;52.556;13.430;2023-03-25T10:52:33;99430.75;;;14.64;100.00
27294;BME280;14785;52.556;13.430;2023-03-25T10:54:58;99423.84;;;14.43;100.00
27294;BME280;14785;52.556;13.430;2023-03-25T10:57:28;99440.59;;;13.80;100.00
27294;BME280;14785;52.556;13.430;2023-03-25T11:02:41;99413.63;;;14.27;100.00
27294;BME280;14785;52.556;13.430;2023-03-25T11:05:07;99411.03;;;14.58;100.00
27294;BME280;14785;52.556;13.430;2023-03-25T11:07:39;99401.28;;;14.26;100.00
27294;BME280;14785;52.556;13.430;2023-03-25T11:12:49;99408.56;;;14.63;100.00
27294;BME280;14785;52.556;13.430;2023-03-25T11:15:36;99411.50;;;14.42;100.00
27294;BME280;14785;52.556;13.430;2023-03-25T11:20:55;99415.25;;;14.28;100.00
27294;BME280;14785;52.556;13.430;2023-03-25T11:23:33;99457.25;;;13.95;100.00
27294;BME280;14785;52.556;13.430;2023-03-25T11:26:12;99404.19;;;13.99;100.00
27294;BME280;14785;52.556;13.430;2023-03-25T11:28:48;99428.88;;;14.01;100.00
27294;BME280;14785;52.556;13.430;2023-03-25T11:31:34;99403.31;;;14.18;100.00
27294;BME280;14785;52.556;13.430;2023-03-25T11:36:46;99455.44;;;12.96;100.00
27294;BME280;14785;52.556;13.430;2023-03-25T11:39:34;99470.75;;;10.95;100.00
27294;BME280;14785;52.556;13.430;2023-03-25T11:42:29;99429.78;;;10.89;100.00
27294;BME280;14785;52.556;13.430;2023-03-25T11:44:57;99414.03;;;10.73;100.00
27294;BME280;14785;52.556;13.430;2023-03-25T11:47:29;99425.47;;;11.09;100.00
27294;BME280;14785;52.556;13.430;2023-03-25T11:49:56;99421.81;;;11.10;100.00
27294;BME280;14785;52.556;13.430;2023-03-25T11:52:27;99427.25;;;11.44;100.00
27294;BME280;14785;52.556;13.430;2023-03-25T11:54:59;99415.78;;;12.27;100.00
27294;BME280;14785;52.556;13.430;2023-03-25T11:57:37;99400.44;;;12.35;100.00
27294;BME280;14785;52.556;13.430;2023-03-25T12:00:16;99386.69;;;12.32;100.00
27294;BME280;14785;52.556;13.430;2023-03-25T12:02:44;99388.31;;;12.33;100.00
27294;BME280;14785;52.556;13.430;2023-03-25T12:05:13;99384.50;;;13.15;100.00
27294;BME280;14785;52.556;13.430;2023-03-25T12:07:47;99379.94;;;13.74;100.00
27294;BME280;14785;52.556;13.430;2023-03-25T12:15:38;99363.50;;;14.91;100.00
27294;BME280;14785;52.556;13.430;2023-03-25T12:29:55;99345.66;;;14.41;100.00
27294;BME280;14785;52.556;13.430;2023-03-25T12:54:06;99371.72;;;14.96;100.00
27294;BME280;14785;52.556;13.430;2023-03-25T13:07:17;99334.50;;;14.51;100.00
27294;BME280;14785;52.556;13.430;2023-03-25T13:10:03;99372.16;;;13.79;100.00
27294;BME280;14785;52.556;13.430;2023-03-25T13:15:16;99333.53;;;13.75;100.00
27294;BME280;14785;52.556;13.430;2023-03-25T13:18:30;99370.06;;;13.88;100.00
27294;BME280;14785;52.556;13.430;2023-03-25T13:23:30;99392.38;;;10.76;100.00
27294;BME280;14785;52.556;13.430;2023-03-25T13:26:18;99371.75;;;11.48;100.00
27294;BME280;14785;52.556;13.430;2023-03-25T13:29:01;99371.75;;;11.48;100.00
27294;BME280;14785;52.556;13.430;2023-03-25T13:31:40;99373.00;;;11.45;100.00
27294;BME280;14785;52.556;13.430;2023-03-25T13:34:30;99367.75;;;11.58;100.00
27294;BME280;14785;52.556;13.430;2023-03-25T13:37:17;99368.09;;;11.70;100.00
27294;BME280;14785;52.556;13.430;2023-03-25T13:48:22;99365.13;;;12.87;100.00
27294;BME280;14785;52.556;13.430;2023-03-25T13:50:51;99374.16;;;11.92;100.00
27294;BME280;14785;52.556;13.430;2023-03-25T13:53:50;99373.75;;;11.95;100.00
27294;BME280;14785;52.556;13.430;2023-03-25T14:10:52;99337.66;;;13.19;100.00
27294;BME280;14785;52.556;13.430;2023-03-25T14:16:04;99346.09;;;13.42;100.00
27294;BME280;14785;52.556;13.430;2023-03-25T14:18:31;99343.44;;;13.29;100.00
27294;BME280;14785;52.556;13.430;2023-03-25T14:21:11;99365.19;;;13.19;100.00
27294;BME280;14785;52.556;13.430;2023-03-25T14:23:38;99354.50;;;13.45;100.00
27294;BME280;14785;52.556;13.430;2023-03-25T14:26:06;99354.09;;;13.42;100.00
27294;BME280;14785;52.556;13.430;2023-03-25T14:28:39;99352.47;;;13.15;100.00
27294;BME280;14785;52.556;13.430;2023-03-25T14:39:10;99334.63;;;14.18;100.00
27294;BME280;14785;52.556;13.430;2023-03-25T14:44:25;99325.50;;;15.07;100.00
27294;BME280;14785;52.556;13.430;2023-03-25T14:47:26;99323.41;;;14.47;100.00
27294;BME280;14785;52.556;13.430;2023-03-25T14:50:01;99319.19;;;14.27;100.00
27294;BME280;14785;52.556;13.430;2023-03-25T14:52:47;99318.44;;;14.57;100.00
27294;BME280;14785;52.556;13.430;2023-03-25T14:55:35;99322.88;;;15.25;100.00
27294;BME280;14785;52.556;13.430;2023-03-25T15:01:01;99319.38;;;15.00;100.00
27294;BME280;14785;52.556;13.430;2023-03-25T15:03:34;99323.50;;;14.65;100.00
27294;BME280;14785;52.556;13.430;2023-03-25T15:06:02;99311.88;;;15.83;100.00
27294;BME280;14785;52.556;13.430;2023-03-25T15:08:39;99325.75;;;14.68;100.00
27294;BME280;14785;52.556;13.430;2023-03-25T15:11:08;99327.22;;;14.20;100.00
27294;BME280;14785;52.556;13.430;2023-03-25T15:13:41;99314.56;;;14.84;100.00
27294;BME280;14785;52.556;13.430;2023-03-25T15:16:26;99314.41;;;15.04;100.00
27294;BME280;14785;52.556;13.430;2023-03-25T15:21:23;99309.41;;;16.65;100.00
27294;BME280;14785;52.556;13.430;2023-03-25T15:23:52;99311.44;;;17.34;100.00
27294;BME280;14785;52.556;13.430;2023-03-25T15:26:35;99313.28;;;15.85;100.00
27294;BME280;14785;52.556;13.430;2023-03-25T15:31:53;99306.13;;;17.68;100.00
27294;BME280;14785;52.556;13.430;2023-03-25T15:44:05;99301.53;;;17.23;100.00
27294;BME280;14785;52.556;13.430;2023-03-25T15:52:11;99297.63;;;16.66;100.00
27294;BME280;14785;52.556;13.430;2023-03-25T15:55:07;99296.94;;;16.70;100.00
27294;BME280;14785;52.556;13.430;2023-03-25T15:57:39;99305.91;;;15.38;100.00
27294;BME280;14785;52.556;13.430;2023-03-25T16:05:32;99309.66;;;14.75;100.00
27294;BME280;14785;52.556;13.430;2023-03-25T16:08:04;99306.59;;;14.71;100.00